Alto, Texas
Current Conditions -  °F | °C
As of 10:35 PM on Sunday 23 Nov 2014 (Local Time) from KJSO Reporting Station
Clear Clear  
Wind Chill: 60°   Ceiling: Unl
Heat Index: 60°   Visibility: 10mi
Dew Point: 44°   Wind: 12mph
Humidity: 57%   Direction: 300°WNW
Pressure: 29.71"   Gusts: 21mph
Location:  31.65°N, 95.07°W
Report Text: KJSO 240435Z AUTO 30010G18KT 10SM CLR 15/06 A2971 RMK AO2 T01550069
Loading
Personal Weather Stations






























Interactive Weather Map New forecast layout! Learn more

10-Day Weather Forecast

Advertisements
Track Severe Weather on mobile